Time;durP1;ratioP1;P1;durP2;ratioP2;P2;SDS_P1;SDS_P2;PMS_P1;PMS_P2;Temp;Humidity;BMP_temperature;BMP_pressure;BME280_temperature;BME280_humidity;BME280_pressure;Samples;Min_cycle;Max_cycle;Signal;HPM_P1;HPM_P2
2022/04/14 00:01:27;;;;;;;11.73;5.78;;;12.90;99.90;;;;;;5045008;28;20047;-73
2022/04/14 00:03:53;;;;;;;12.95;5.90;;;13.00;99.90;;;;;;5054946;28;20524;-72
2022/04/14 00:06:19;;;;;;;12.98;6.68;;;13.00;99.90;;;;;;5033314;28;20041;-72
2022/04/14 00:08:44;;;;;;;17.00;7.43;;;13.00;99.90;;;;;;5053015;28;20056;-72
2022/04/14 00:11:10;;;;;;;15.23;6.43;;;12.90;99.90;;;;;;5037744;28;20052;-72
2022/04/14 00:13:35;;;;;;;10.57;6.20;;;12.90;99.90;;;;;;5040793;28;20044;-73
2022/04/14 00:16:01;;;;;;;12.57;5.90;;;12.90;99.90;;;;;;5044612;28;20128;-72
2022/04/14 00:18:27;;;;;;;12.10;6.90;;;12.90;99.90;;;;;;5063363;28;20503;-72
2022/04/14 00:20:53;;;;;;;14.25;7.22;;;12.90;99.90;;;;;;5050952;28;20753;-72
2022/04/14 00:23:18;;;;;;;14.10;6.28;;;12.90;99.90;;;;;;5055889;28;20474;-72
2022/04/14 00:25:45;;;;;;;13.20;7.25;;;12.80;99.90;;;;;;5044582;28;20046;-72
2022/04/14 00:28:10;;;;;;;12.45;6.72;;;12.80;99.90;;;;;;5043065;28;20381;-72
2022/04/14 00:30:36;;;;;;;11.88;6.97;;;12.80;99.90;;;;;;5057272;28;20043;-72
2022/04/14 00:33:01;;;;;;;11.10;6.60;;;12.80;99.90;;;;;;5071511;28;20080;-74
2022/04/14 00:35:27;;;;;;;15.38;7.45;;;12.80;99.90;;;;;;5037956;28;20900;-72
2022/04/14 00:37:53;;;;;;;14.77;7.93;;;12.80;99.90;;;;;;5054917;28;20041;-71
2022/04/14 00:40:18;;;;;;;16.88;8.30;;;12.70;99.90;;;;;;5035082;28;20140;-71
2022/04/14 00:42:44;;;;;;;17.27;8.55;;;12.70;99.90;;;;;;5051996;28;20064;-72
2022/04/14 00:45:10;;;;;;;15.80;8.65;;;12.70;99.90;;;;;;5054104;28;20516;-72
2022/04/14 00:47:36;;;;;;;13.00;7.75;;;12.60;99.90;;;;;;5055909;28;20037;-72
2022/04/14 00:50:03;;;;;;;18.95;8.88;;;12.60;99.90;;;;;;5038222;28;20055;-71
2022/04/14 00:52:29;;;;;;;16.52;8.18;;;12.60;99.90;;;;;;5035509;28;20128;-72
2022/04/14 00:54:54;;;;;;;20.33;9.60;;;12.60;99.90;;;;;;5055278;28;20595;-72
2022/04/14 00:57:20;;;;;;;14.02;9.25;;;12.50;99.90;;;;;;5065390;28;20052;-72
2022/04/14 00:59:46;;;;;;;15.00;9.93;;;12.50;99.90;;;;;;5041585;28;20071;-72
2022/04/14 01:02:11;;;;;;;15.55;8.32;;;12.50;99.90;;;;;;5054601;28;20098;-73
2022/04/14 01:04:40;;;;;;;15.88;9.30;;;12.40;99.90;;;;;;5032592;28;20653;-73
2022/04/14 01:07:07;;;;;;;15.40;9.40;;;12.40;99.90;;;;;;5058249;28;20044;-72
2022/04/14 01:09:34;;;;;;;14.52;8.52;;;12.40;99.90;;;;;;5079872;28;20367;-71
2022/04/14 01:12:00;;;;;;;18.92;9.80;;;12.30;99.90;;;;;;5060124;28;20383;-72
2022/04/14 01:14:29;;;;;;;16.33;9.35;;;12.30;99.90;;;;;;5077160;28;20040;-72
2022/04/14 01:16:59;;;;;;;18.42;10.57;;;12.30;99.90;;;;;;5048042;28;20150;-72
2022/04/14 01:19:25;;;;;;;18.80;10.32;;;12.20;99.90;;;;;;5040974;28;20045;-72
2022/04/14 01:22:23;;;;;;;20.65;11.07;;;12.20;99.90;;;;;;5037764;28;20029;-73
2022/04/14 01:24:50;;;;;;;18.85;10.35;;;12.20;99.90;;;;;;5061443;28;20052;-72
2022/04/14 01:27:15;;;;;;;15.73;9.95;;;12.10;99.90;;;;;;5054000;28;20040;-72
2022/04/14 01:29:41;;;;;;;17.50;9.93;;;12.10;99.90;;;;;;5072460;28;20373;-72
2022/04/14 01:32:07;;;;;;;16.50;9.93;;;12.00;99.90;;;;;;5048915;28;20044;-72
2022/04/14 01:34:33;;;;;;;15.73;10.05;;;12.00;99.90;;;;;;5053369;28;20049;-73
2022/04/14 01:37:02;;;;;;;15.85;10.55;;;12.00;99.90;;;;;;5034412;28;20498;-72
2022/04/14 01:39:28;;;;;;;17.75;11.10;;;12.00;99.90;;;;;;5044162;28;20354;-73
2022/04/14 01:41:57;;;;;;;15.52;10.48;;;11.90;99.90;;;;;;5066389;28;20076;-73
2022/04/14 01:44:23;;;;;;;16.63;10.25;;;11.90;99.90;;;;;;5058625;28;20136;-72
2022/04/14 01:46:48;;;;;;;20.27;12.80;;;11.90;99.90;;;;;;5038955;28;20116;-74
2022/04/14 01:49:14;;;;;;;20.17;11.10;;;11.80;99.90;;;;;;5035216;28;20037;-73
2022/04/14 01:51:39;;;;;;;22.15;11.23;;;11.70;99.90;;;;;;5076889;28;20123;-72
2022/04/14 01:54:06;;;;;;;19.92;11.45;;;11.80;99.90;;;;;;5066010;28;20048;-73
2022/04/14 01:56:32;;;;;;;19.23;11.13;;;11.70;99.90;;;;;;5038820;28;20124;-73
2022/04/14 01:59:01;;;;;;;23.85;12.75;;;11.70;99.90;;;;;;5051265;28;20151;-73
2022/04/14 02:01:26;;;;;;;19.52;12.30;;;11.70;99.90;;;;;;5045048;28;20079;-72
2022/04/14 02:03:52;;;;;;;21.52;12.32;;;11.60;99.90;;;;;;5064064;28;20052;-73
2022/04/14 02:06:18;;;;;;;25.20;13.52;;;11.60;99.90;;;;;;5050070;28;20061;-73
2022/04/14 02:08:44;;;;;;;22.27;12.82;;;11.90;99.90;;;;;;5045333;28;20151;-73
2022/04/14 02:11:10;;;;;;;25.13;12.35;;;11.60;99.90;;;;;;5058882;28;20203;-73
2022/04/14 02:13:37;;;;;;;22.00;12.57;;;11.60;99.90;;;;;;5061996;28;20095;-72
2022/04/14 02:16:03;;;;;;;21.80;13.60;;;11.60;99.90;;;;;;5042969;28;20047;-72
2022/04/14 02:18:29;;;;;;;22.95;13.98;;;11.60;99.90;;;;;;5057716;28;20359;-72
2022/04/14 02:20:54;;;;;;;24.10;15.27;;;11.60;99.90;;;;;;5065024;28;20115;-72
2022/04/14 02:23:20;;;;;;;24.25;13.52;;;11.60;99.90;;;;;;5048064;28;20059;-72
2022/04/14 02:25:46;;;;;;;23.80;14.30;;;11.50;99.90;;;;;;5039715;28;20045;-72
2022/04/14 02:28:13;;;;;;;29.27;15.73;;;11.50;99.90;;;;;;5047447;28;20040;-72
2022/04/14 02:30:39;;;;;;;28.63;15.32;;;11.60;99.90;;;;;;5055127;28;20045;-73
2022/04/14 02:33:04;;;;;;;24.17;15.05;;;11.50;99.90;;;;;;5036352;28;20082;-72
2022/04/14 02:35:30;;;;;;;27.98;15.38;;;11.40;99.90;;;;;;5063583;28;20749;-72
2022/04/14 02:37:56;;;;;;;26.25;15.40;;;11.40;99.90;;;;;;5061397;28;20043;-72
2022/04/14 02:40:24;;;;;;;26.08;15.57;;;11.40;99.90;;;;;;5066062;28;20409;-73
2022/04/14 02:42:50;;;;;;;27.33;14.70;;;11.30;99.90;;;;;;5063240;28;20105;-72
2022/04/14 02:45:26;;;;;;;20.85;13.77;;;11.30;99.90;;;;;;5036014;28;20071;-72
2022/04/14 02:47:52;;;;;;;23.50;14.20;;;11.30;99.90;;;;;;5056791;28;20028;-73
2022/04/14 02:50:20;;;;;;;26.85;14.77;;;11.30;99.90;;;;;;5041187;28;20132;-72
2022/04/14 02:52:48;;;;;;;25.42;15.07;;;11.30;99.90;;;;;;5065279;28;20110;-73
2022/04/14 02:55:14;;;;;;;24.92;14.30;;;11.30;99.90;;;;;;5058066;28;20033;-73
2022/04/14 02:57:41;;;;;;;24.67;15.15;;;11.20;99.90;;;;;;5057080;28;20079;-73
2022/04/14 03:00:11;;;;;;;21.38;13.82;;;11.10;99.90;;;;;;5040712;28;20095;-72
2022/04/14 03:02:38;;;;;;;29.58;15.15;;;11.20;99.90;;;;;;5047051;28;20105;-72
2022/04/14 03:05:05;;;;;;;29.50;16.08;;;11.20;99.90;;;;;;5059508;28;20048;-74
2022/04/14 03:07:31;;;;;;;26.90;14.93;;;11.10;99.90;;;;;;5059456;28;20033;-72
2022/04/14 03:09:57;;;;;;;27.35;17.08;;;11.10;99.90;;;;;;5054323;28;20045;-72
2022/04/14 03:12:25;;;;;;;24.60;14.05;;;11.10;99.90;;;;;;5058984;28;20037;-72
2022/04/14 03:14:51;;;;;;;22.05;15.35;;;11.10;99.90;;;;;;5064737;28;20048;-72
2022/04/14 03:17:16;;;;;;;26.80;15.95;;;11.00;99.90;;;;;;5049845;28;20186;-72
2022/04/14 03:19:42;;;;;;;24.42;15.95;;;11.00;99.90;;;;;;5044671;28;20590;-72
2022/04/14 03:22:08;;;;;;;25.75;16.92;;;11.00;99.90;;;;;;5048043;28;20122;-72
2022/04/14 03:24:33;;;;;;;29.33;17.00;;;11.00;99.90;;;;;;5062103;28;20047;-72
2022/04/14 03:26:59;;;;;;;32.88;18.38;;;10.90;99.90;;;;;;5037882;28;20044;-72
2022/04/14 03:29:26;;;;;;;28.33;17.73;;;10.90;99.90;;;;;;5062817;28;20496;-72
2022/04/14 03:31:51;;;;;;;30.35;16.95;;;10.90;99.90;;;;;;5068237;28;20458;-72
2022/04/14 03:34:17;;;;;;;31.42;17.52;;;10.80;99.90;;;;;;5065276;28;20055;-72
2022/04/14 03:36:43;;;;;;;30.17;17.92;;;10.80;99.90;;;;;;5063004;28;20048;-72
2022/04/14 03:39:08;;;;;;;30.38;18.27;;;10.70;99.90;;;;;;5045849;28;20056;-72
2022/04/14 03:41:34;;;;;;;40.78;20.23;;;10.70;99.90;;;;;;5062826;28;20051;-73
2022/04/14 03:43:59;;;;;;;30.77;18.02;;;10.70;99.90;;;;;;5065924;28;20056;-72
2022/04/14 03:46:25;;;;;;;32.08;18.13;;;10.70;99.90;;;;;;5046562;28;20126;-72
2022/04/14 03:48:51;;;;;;;31.95;19.42;;;10.60;99.90;;;;;;5042623;28;20086;-72
2022/04/14 03:51:16;;;;;;;37.50;20.40;;;10.60;99.90;;;;;;5052879;28;20040;-73
2022/04/14 03:53:43;;;;;;;31.02;19.27;;;10.60;99.90;;;;;;5035021;28;20629;-73
2022/04/14 03:56:10;;;;;;;28.02;18.98;;;10.60;99.90;;;;;;5053946;28;20116;-72
2022/04/14 03:58:36;;;;;;;35.05;19.27;;;10.60;99.90;;;;;;5032792;28;20049;-72
2022/04/14 04:01:04;;;;;;;38.35;20.65;;;10.60;99.90;;;;;;5065358;28;20028;-72
2022/04/14 04:03:29;;;;;;;29.38;19.05;;;10.60;99.90;;;;;;5045480;28;20083;-72
2022/04/14 04:05:55;;;;;;;30.48;19.70;;;10.60;99.90;;;;;;5041855;28;20072;-73
2022/04/14 04:08:21;;;;;;;36.40;21.45;;;10.50;99.90;;;;;;5040221;28;20049;-72
2022/04/14 04:10:47;;;;;;;40.72;21.27;;;10.50;99.90;;;;;;5057959;28;20040;-72
2022/04/14 04:13:13;;;;;;;29.35;19.48;;;10.50;99.90;;;;;;5056770;28;20133;-73
2022/04/14 04:15:39;;;;;;;35.22;21.63;;;10.50;99.90;;;;;;5034317;28;20079;-72
2022/04/14 04:18:06;;;;;;;34.50;20.20;;;10.50;99.90;;;;;;5054683;28;20029;-73
2022/04/14 04:20:32;;;;;;;34.92;20.65;;;10.50;99.90;;;;;;5035844;28;20037;-73
2022/04/14 04:22:58;;;;;;;30.83;20.23;;;10.40;99.90;;;;;;5064812;28;20032;-72
2022/04/14 04:25:24;;;;;;;34.28;21.00;;;10.40;99.90;;;;;;5058349;28;20049;-73
2022/04/14 04:27:49;;;;;;;40.45;20.98;;;10.40;99.90;;;;;;5065104;28;20052;-72
2022/04/14 04:30:15;;;;;;;33.30;21.02;;;10.40;99.90;;;;;;5060331;28;20117;-72
2022/04/14 04:32:41;;;;;;;29.20;20.80;;;10.40;99.90;;;;;;5058750;28;20087;-73
2022/04/14 04:35:12;;;;;;;39.22;22.50;;;10.30;99.90;;;;;;5056671;28;20047;-72
2022/04/14 04:37:38;;;;;;;36.65;20.88;;;10.30;99.90;;;;;;5067194;28;20044;-73
2022/04/14 04:40:04;;;;;;;33.42;20.55;;;10.30;99.90;;;;;;5037532;28;20040;-73
2022/04/14 04:42:31;;;;;;;38.17;23.75;;;10.30;99.90;;;;;;5055891;28;20048;-74
2022/04/14 04:44:59;;;;;;;32.35;20.75;;;10.30;99.90;;;;;;5049453;28;21563;-72
2022/04/14 04:47:26;;;;;;;30.60;19.92;;;10.30;99.90;;;;;;5044722;28;20045;-72
2022/04/14 04:49:51;;;;;;;29.73;20.83;;;10.30;99.90;;;;;;5066250;28;20097;-73
2022/04/14 04:52:17;;;;;;;33.42;21.08;;;10.30;99.90;;;;;;5040852;28;20131;-73
2022/04/14 04:54:43;;;;;;;38.67;23.83;;;10.20;99.90;;;;;;5059802;28;20044;-73
2022/04/14 04:57:09;;;;;;;30.33;21.05;;;10.20;99.90;;;;;;5061313;28;20436;-73
2022/04/14 04:59:35;;;;;;;37.22;22.23;;;10.20;99.90;;;;;;5037325;28;20033;-73
2022/04/14 05:02:04;;;;;;;37.83;23.67;;;10.20;99.90;;;;;;5064214;28;20041;-73
2022/04/14 05:04:29;;;;;;;33.15;20.80;;;10.10;99.90;;;;;;5064511;28;20067;-72
2022/04/14 05:06:55;;;;;;;35.30;23.33;;;10.10;99.90;;;;;;5055362;28;20029;-73
2022/04/14 05:09:23;;;;;;;39.28;21.80;;;10.10;99.90;;;;;;5042222;28;20084;-72
2022/04/14 05:11:49;;;;;;;37.85;22.85;;;10.10;99.90;;;;;;5052129;28;20190;-72
2022/04/14 05:14:15;;;;;;;34.65;22.48;;;10.10;99.90;;;;;;5048780;28;20123;-72
2022/04/14 05:16:41;;;;;;;38.53;24.63;;;10.10;99.90;;;;;;5040052;28;20059;-71
2022/04/14 05:19:07;;;;;;;38.85;23.30;;;10.10;99.90;;;;;;5058201;28;20041;-73
2022/04/14 05:21:32;;;;;;;42.10;24.90;;;10.10;99.90;;;;;;5056615;28;20211;-73
2022/04/14 05:23:58;;;;;;;38.22;24.45;;;10.10;99.90;;;;;;5040714;28;20056;-73
2022/04/14 05:26:23;;;;;;;41.22;25.95;;;10.10;99.90;;;;;;5052241;28;20033;-73
2022/04/14 05:28:52;;;;;;;41.88;24.75;;;10.10;99.90;;;;;;5049358;28;20086;-73
2022/04/14 05:31:17;;;;;;;38.50;25.15;;;10.10;99.90;;;;;;5033716;28;20041;-73
2022/04/14 05:33:43;;;;;;;36.33;23.55;;;10.20;99.90;;;;;;5043189;28;20095;-73
2022/04/14 05:36:08;;;;;;;43.42;24.98;;;10.20;99.90;;;;;;5047065;28;20071;-73
2022/04/14 05:38:34;;;;;;;40.28;23.92;;;10.20;99.90;;;;;;5053272;28;20040;-73
2022/04/14 05:41:00;;;;;;;39.17;23.67;;;10.30;99.90;;;;;;5066214;28;20041;-72
2022/04/14 05:43:27;;;;;;;46.90;24.77;;;10.30;99.90;;;;;;5048625;28;20185;-73
2022/04/14 05:45:54;;;;;;;37.45;24.25;;;10.30;99.90;;;;;;5044126;28;20512;-73
2022/04/14 05:48:20;;;;;;;36.45;24.38;;;10.40;99.90;;;;;;5042294;28;20114;-74
2022/04/14 05:50:47;;;;;;;38.15;22.15;;;10.40;99.90;;;;;;5048685;28;20040;-74
2022/04/14 05:53:13;;;;;;;36.75;23.58;;;10.50;99.90;;;;;;5064582;28;20045;-74
2022/04/14 05:55:40;;;;;;;36.65;23.48;;;10.50;99.90;;;;;;5056103;28;20044;-75
2022/04/14 05:58:06;;;;;;;36.28;22.73;;;10.60;99.90;;;;;;5051802;28;20083;-74
2022/04/14 06:00:34;;;;;;;37.92;24.48;;;10.70;99.90;;;;;;5033912;28;20672;-74
2022/04/14 06:03:00;;;;;;;43.28;25.80;;;10.70;99.90;;;;;;5038601;28;20129;-73
2022/04/14 06:05:27;;;;;;;36.17;22.73;;;10.70;99.90;;;;;;5065425;28;20492;-72
2022/04/14 06:07:53;;;;;;;35.70;23.48;;;10.80;99.90;;;;;;5060952;28;20037;-73
2022/04/14 06:10:19;;;;;;;35.80;22.90;;;10.90;99.90;;;;;;5035494;28;20132;-74
2022/04/14 06:12:45;;;;;;;38.92;23.17;;;10.90;99.90;;;;;;5049540;28;20162;-74
2022/04/14 06:15:14;;;;;;;34.58;22.40;;;10.90;99.90;;;;;;5037821;28;20041;-74
2022/04/14 06:17:40;;;;;;;39.38;22.40;;;11.00;99.90;;;;;;5078069;28;20127;-73
2022/04/14 06:20:09;;;;;;;35.47;23.20;;;11.00;99.90;;;;;;5074096;28;20151;-73
2022/04/14 06:22:39;;;;;;;36.53;20.73;;;11.10;99.90;;;;;;5050745;28;20080;-72
2022/04/14 06:25:12;;;;;;;32.75;21.58;;;11.10;99.90;;;;;;5062965;28;20049;-73
2022/04/14 06:27:45;;;;;;;36.72;22.02;;;11.20;99.90;;;;;;5055931;28;20071;-74
2022/04/14 06:30:12;;;;;;;36.00;21.83;;;11.30;99.90;;;;;;5052557;28;20055;-73
2022/04/14 06:32:38;;;;;;;42.05;21.65;;;11.40;99.90;;;;;;5068712;28;20037;-73
2022/04/14 06:35:06;;;;;;;36.80;21.02;;;11.40;99.90;;;;;;5047587;28;20545;-73
2022/04/14 06:37:32;;;;;;;32.17;21.67;;;11.50;99.90;;;;;;5068065;28;20037;-74
2022/04/14 06:40:01;;;;;;;40.28;21.10;;;11.50;99.90;;;;;;5042111;28;20361;-73
2022/04/14 06:42:26;;;;;;;35.40;22.30;;;11.60;99.90;;;;;;5055905;28;20400;-73
2022/04/14 06:44:57;;;;;;;44.08;22.00;;;11.60;99.90;;;;;;5057261;28;20047;-72
2022/04/14 06:47:22;;;;;;;36.50;20.77;;;11.60;99.90;;;;;;5057556;28;20139;-73
2022/04/14 06:49:48;;;;;;;32.10;18.63;;;11.70;99.90;;;;;;5076137;28;20519;-73
2022/04/14 06:52:14;;;;;;;33.70;20.10;;;11.70;99.90;;;;;;5065557;28;20391;-73
2022/04/14 06:54:39;;;;;;;36.28;19.25;;;11.80;99.90;;;;;;5068770;28;20048;-73
2022/04/14 06:57:05;;;;;;;28.40;16.48;;;11.80;99.90;;;;;;5063251;28;20049;-74
2022/04/14 06:59:33;;;;;;;28.17;17.05;;;11.90;99.90;;;;;;5060236;28;20113;-72
2022/04/14 07:01:58;;;;;;;25.90;16.20;;;11.90;99.90;;;;;;5055989;28;20086;-73
2022/04/14 07:04:24;;;;;;;24.42;14.80;;;12.00;99.90;;;;;;5048526;28;20045;-73
2022/04/14 07:06:53;;;;;;;25.58;15.23;;;12.00;99.90;;;;;;5070323;28;20154;-73
2022/04/14 07:09:19;;;;;;;39.03;18.40;;;12.10;99.90;;;;;;5050181;28;20472;-73
2022/04/14 07:11:44;;;;;;;27.85;18.20;;;12.20;99.90;;;;;;5072549;28;20123;-73
2022/04/14 07:14:10;;;;;;;23.90;17.33;;;12.20;99.90;;;;;;5050582;28;20047;-73
2022/04/14 07:16:35;;;;;;;30.20;16.00;;;12.30;99.90;;;;;;5064684;28;20049;-73
2022/04/14 07:19:01;;;;;;;26.77;16.02;;;12.40;99.90;;;;;;5040340;28;20481;-74
2022/04/14 07:21:26;;;;;;;26.85;16.15;;;12.40;99.90;;;;;;5050526;28;20044;-73
2022/04/14 07:23:52;;;;;;;26.35;16.15;;;12.40;99.90;;;;;;5057822;28;20093;-73
2022/04/14 07:26:18;;;;;;;30.13;17.17;;;12.50;99.90;;;;;;5054177;28;20063;-74
2022/04/14 07:28:43;;;;;;;25.85;15.63;;;12.50;99.90;;;;;;5074842;28;20036;-73
2022/04/14 07:31:09;;;;;;;30.70;16.90;;;12.60;99.90;;;;;;5062551;28;20045;-73
2022/04/14 07:33:36;;;;;;;21.33;16.45;;;12.60;99.90;;;;;;5033586;28;20167;-73
2022/04/14 07:36:02;;;;;;;26.48;16.48;;;12.80;99.90;;;;;;5050272;28;20122;-72
2022/04/14 07:38:28;;;;;;;27.40;16.95;;;12.90;99.90;;;;;;5055057;28;20056;-73
2022/04/14 07:40:56;;;;;;;28.88;18.33;;;12.90;99.90;;;;;;5038591;28;20628;-73
2022/04/14 07:43:22;;;;;;;28.35;17.40;;;13.00;99.90;;;;;;5051425;28;20044;-73
2022/04/14 07:45:48;;;;;;;29.45;19.27;;;13.00;99.90;;;;;;5030964;28;20562;-73
2022/04/14 07:48:16;;;;;;;29.33;19.83;;;13.10;99.90;;;;;;5067846;28;20044;-73
2022/04/14 07:50:42;;;;;;;26.08;17.92;;;13.10;99.90;;;;;;5066816;28;20503;-73
2022/04/14 07:53:08;;;;;;;27.80;18.38;;;13.20;99.90;;;;;;5064348;28;20057;-73
2022/04/14 07:55:34;;;;;;;28.42;17.98;;;13.20;99.90;;;;;;5035699;28;20401;-73
2022/04/14 07:58:06;;;;;;;29.48;18.55;;;13.20;99.90;;;;;;5048608;28;20045;-73
2022/04/14 08:00:33;;;;;;;26.27;18.27;;;13.20;99.90;;;;;;5033080;28;20060;-73
2022/04/14 08:03:01;;;;;;;26.65;17.92;;;13.30;99.90;;;;;;5048383;28;20063;-73
2022/04/14 08:05:36;;;;;;;27.98;19.23;;;13.40;99.90;;;;;;5038153;28;20122;-73
2022/04/14 08:08:14;;;;;;;28.55;18.38;;;13.50;99.90;;;;;;5046746;28;20139;-73
2022/04/14 08:10:42;;;;;;;26.88;17.83;;;13.50;99.90;;;;;;5065833;28;20064;-73
2022/04/14 08:13:11;;;;;;;23.35;17.65;;;13.60;99.90;;;;;;5056045;28;20048;-74
2022/04/14 08:15:37;;;;;;;27.73;17.35;;;13.70;99.90;;;;;;5076364;28;20044;-73
2022/04/14 08:18:03;;;;;;;25.20;17.73;;;13.60;99.90;;;;;;5033662;28;20655;-74
2022/04/14 08:20:33;;;;;;;25.77;18.42;;;13.80;99.90;;;;;;5031412;28;20040;-74
2022/04/14 08:23:00;;;;;;;26.30;17.83;;;13.90;99.90;;;;;;5080626;28;20075;-73
2022/04/14 08:25:29;;;;;;;24.42;16.67;;;14.00;99.90;;;;;;5080635;28;20406;-73
2022/04/14 08:27:56;;;;;;;25.85;17.25;;;14.00;99.90;;;;;;5040813;28;20040;-74
2022/04/14 08:30:23;;;;;;;25.40;15.90;;;14.10;99.90;;;;;;5047624;28;20473;-72
2022/04/14 08:32:51;;;;;;;24.35;16.27;;;14.30;99.90;;;;;;5054528;28;20713;-73
2022/04/14 08:35:18;;;;;;;24.55;17.30;;;14.20;99.90;;;;;;5038816;28;20044;-74
2022/04/14 08:37:45;;;;;;;23.70;17.08;;;14.30;99.90;;;;;;5051238;28;20072;-73
2022/04/14 08:40:12;;;;;;;22.25;16.55;;;14.30;99.90;;;;;;5056019;28;20386;-72
2022/04/14 08:42:41;;;;;;;20.60;15.35;;;14.40;99.90;;;;;;5051647;28;20037;-72
2022/04/14 08:45:17;;;;;;;22.50;15.43;;;14.50;99.90;;;;;;5063007;28;20507;-74
2022/04/14 08:47:43;;;;;;;21.60;15.75;;;14.50;99.90;;;;;;5044667;28;20041;-72
2022/04/14 08:50:10;;;;;;;21.52;15.75;;;14.50;99.90;;;;;;5048092;28;20045;-73
2022/04/14 08:52:37;;;;;;;21.40;14.98;;;14.60;99.90;;;;;;5065620;28;20135;-73
2022/04/14 08:55:05;;;;;;;19.88;13.80;;;14.70;99.90;;;;;;5054563;28;20037;-73
2022/04/14 08:57:32;;;;;;;22.08;13.75;;;14.70;99.90;;;;;;5040499;28;20061;-73
2022/04/14 08:59:59;;;;;;;19.85;14.30;;;14.80;99.90;;;;;;5039308;28;20439;-73
2022/04/14 09:02:26;;;;;;;19.48;12.95;;;14.90;99.90;;;;;;5067656;28;20051;-74
2022/04/14 09:04:52;;;;;;;20.67;13.63;;;15.00;99.90;;;;;;5058942;28;20040;-73
2022/04/14 09:07:18;;;;;;;15.55;11.73;;;15.10;99.90;;;;;;5031055;28;20484;-73
2022/04/14 09:09:44;;;;;;;16.42;12.52;;;15.10;99.90;;;;;;5033825;28;20041;-73
2022/04/14 09:12:10;;;;;;;16.42;11.82;;;15.10;99.90;;;;;;5039962;28;20055;-73
2022/04/14 09:14:37;;;;;;;23.55;12.65;;;15.10;99.90;;;;;;5047854;28;20047;-73
2022/04/14 09:17:03;;;;;;;19.40;10.98;;;15.20;99.90;;;;;;5063853;28;20040;-73
2022/04/14 09:19:31;;;;;;;19.45;11.55;;;15.20;99.90;;;;;;5077498;28;20052;-72
2022/04/14 09:22:08;;;;;;;17.20;9.68;;;15.30;99.90;;;;;;5068620;28;20490;-73
2022/04/14 09:24:52;;;;;;;12.95;9.23;;;15.40;99.90;;;;;;5047769;28;20052;-73
2022/04/14 09:27:32;;;;;;;16.48;9.07;;;15.40;99.90;;;;;;5047913;28;20155;-73
2022/04/14 09:30:07;;;;;;;14.70;9.05;;;15.50;99.90;;;;;;5085780;28;20044;-73
2022/04/14 09:32:43;;;;;;;14.10;10.27;;;15.50;99.90;;;;;;5031415;28;20393;-71
2022/04/14 09:35:16;;;;;;;15.82;9.77;;;15.60;99.90;;;;;;5058642;28;20040;-75
2022/04/14 09:37:41;;;;;;;12.82;8.98;;;15.60;99.90;;;;;;5032086;28;20142;-73
2022/04/14 09:40:09;;;;;;;13.80;7.90;;;15.70;99.90;;;;;;5038579;28;20041;-73
2022/04/14 09:42:37;;;;;;;14.13;9.00;;;15.70;99.90;;;;;;5058984;28;20044;-73
2022/04/14 09:45:19;;;;;;;16.17;8.32;;;15.80;99.90;;;;;;5057844;28;20099;-72
2022/04/14 09:47:45;;;;;;;14.90;8.50;;;15.90;99.90;;;;;;5039104;28;20089;-72
2022/04/14 09:50:39;;;;;;;14.77;8.20;;;16.00;99.90;;;;;;5046425;28;20036;-73
2022/04/14 09:53:07;;;;;;;12.35;7.78;;;16.10;99.90;;;;;;5036543;28;20037;-72
2022/04/14 09:55:41;;;;;;;12.40;8.40;;;16.10;99.90;;;;;;5053996;28;20045;-71
2022/04/14 09:58:35;;;;;;;15.98;8.65;;;16.10;99.90;;;;;;5065228;28;20053;-72
2022/04/14 10:01:01;;;;;;;12.48;8.57;;;16.20;99.90;;;;;;5037570;28;20536;-71
2022/04/14 10:03:31;;;;;;;16.08;9.60;;;16.00;99.90;;;;;;5044390;28;20060;-71
2022/04/14 10:05:59;;;;;;;13.10;8.65;;;15.90;99.90;;;;;;5058823;28;20631;-71
2022/04/14 10:08:27;;;;;;;13.50;9.25;;;16.00;99.90;;;;;;5051973;28;20083;-72
2022/04/14 10:11:07;;;;;;;18.45;9.68;;;16.00;99.90;;;;;;5062840;28;20041;-72
2022/04/14 10:13:38;;;;;;;18.77;10.15;;;16.10;99.90;;;;;;5053866;28;20083;-72
2022/04/14 10:16:04;;;;;;;16.88;11.18;;;16.10;99.90;;;;;;5052266;28;20037;-73
2022/04/14 10:18:31;;;;;;;14.60;10.02;;;16.20;99.90;;;;;;5071522;28;20063;-71
2022/04/14 10:20:57;;;;;;;17.85;10.02;;;16.30;99.90;;;;;;5055440;28;20069;-72
2022/04/14 10:23:25;;;;;;;12.63;7.63;;;16.60;99.90;;;;;;5056594;28;20414;-70
2022/04/14 10:25:53;;;;;;;13.95;8.77;;;16.60;99.90;;;;;;5032538;28;20077;-71
2022/04/14 10:28:20;;;;;;;12.43;7.57;;;16.70;99.90;;;;;;5034012;28;20065;-72
2022/04/14 10:30:57;;;;;;;12.60;6.55;;;16.80;99.90;;;;;;5054876;28;20047;-72
2022/04/14 10:33:23;;;;;;;8.50;5.65;;;16.80;99.90;;;;;;5040109;28;20049;-72
2022/04/14 10:35:51;;;;;;;11.75;6.55;;;16.70;99.90;;;;;;5046910;28;20783;-74
2022/04/14 10:38:25;;;;;;;9.82;5.30;;;16.60;99.90;;;;;;5068773;28;20064;-72
2022/04/14 10:41:21;;;;;;;11.15;5.65;;;16.60;99.90;;;;;;5055959;28;20040;-72
2022/04/14 10:43:47;;;;;;;8.20;5.32;;;16.90;99.90;;;;;;5056111;28;20048;-72
2022/04/14 10:46:17;;;;;;;9.90;6.13;;;16.90;99.90;;;;;;5043794;28;20041;-72
2022/04/14 10:48:45;;;;;;;9.00;5.32;;;16.90;99.90;;;;;;5062583;28;20083;-72
2022/04/14 10:51:24;;;;;;;9.95;5.95;;;16.90;99.90;;;;;;5052161;28;20037;-71
2022/04/14 10:54:10;;;;;;;8.63;5.53;;;16.80;99.90;;;;;;5065376;28;20447;-72
2022/04/14 10:56:44;;;;;;;10.75;5.40;;;16.80;99.90;;;;;;5048486;28;20079;-71
2022/04/14 10:59:17;;;;;;;7.90;5.40;;;16.90;99.90;;;;;;5062648;28;20045;-72
2022/04/14 11:01:50;;;;;;;9.70;6.60;;;17.00;99.90;;;;;;5053904;28;20060;-72
2022/04/14 11:04:36;;;;;;;12.80;7.75;;;17.10;99.90;;;;;;5036632;28;20053;-72
2022/04/14 11:07:14;;;;;;;12.32;7.70;;;17.10;99.90;;;;;;5033004;28;20052;-72
2022/04/14 11:09:42;;;;;;;15.30;8.85;;;17.20;99.90;;;;;;5033027;28;20049;-73
2022/04/14 11:12:26;;;;;;;11.90;7.43;;;17.20;99.90;;;;;;5036428;28;20147;-71
2022/04/14 11:15:06;;;;;;;11.77;6.68;;;17.20;99.90;;;;;;5033724;28;20067;-71
2022/04/14 11:17:37;;;;;;;10.13;5.47;;;17.20;99.90;;;;;;5048244;28;20045;-71
2022/04/14 11:20:23;;;;;;;14.52;6.13;;;17.20;99.90;;;;;;5048539;28;20404;-71
2022/04/14 11:23:11;;;;;;;10.38;4.70;;;17.20;99.90;;;;;;5057221;28;20178;-71
2022/04/14 11:25:43;;;;;;;11.07;5.43;;;17.10;99.90;;;;;;5034374;28;20645;-71
2022/04/14 11:28:25;;;;;;;9.90;5.57;;;17.20;99.90;;;;;;5044266;28;20060;-71
2022/04/14 11:30:55;;;;;;;12.55;6.00;;;17.20;99.90;;;;;;5040722;28;20044;-72
2022/04/14 11:33:28;;;;;;;11.43;6.15;;;17.30;99.90;;;;;;5068113;28;20048;-72
2022/04/14 11:36:05;;;;;;;11.43;5.35;;;17.30;99.90;;;;;;5034825;28;20052;-71
2022/04/14 11:38:56;;;;;;;9.40;4.10;;;17.40;99.90;;;;;;5044240;28;20092;-71
2022/04/14 11:41:46;;;;;;;4.72;2.92;;;17.60;99.90;;;;;;5062110;28;20159;-72
2022/04/14 11:44:17;;;;;;;6.57;3.10;;;17.70;99.90;;;;;;5057648;28;20048;-72
2022/04/14 11:46:50;;;;;;;5.40;3.15;;;17.80;99.90;;;;;;5059076;28;20083;-72
2022/04/14 11:49:24;;;;;;;6.22;3.53;;;17.90;99.90;;;;;;5066286;28;20097;-72
2022/04/14 11:51:53;;;;;;;7.28;3.20;;;17.90;99.40;;;;;;5066377;28;20147;-71
2022/04/14 11:54:46;;;;;;;8.85;3.95;;;18.00;99.10;;;;;;5050383;28;20098;-71
2022/04/14 11:57:18;;;;;;;9.27;4.22;;;18.10;99.20;;;;;;5062594;28;20083;-71
2022/04/14 11:59:50;;;;;;;12.63;4.70;;;18.10;99.70;;;;;;5073134;28;20083;-71
2022/04/14 12:02:26;;;;;;;9.18;5.32;;;18.30;99.90;;;;;;5043913;28;20041;-71
2022/04/14 12:04:56;;;;;;;9.07;4.68;;;18.40;99.30;;;;;;5055789;28;20040;-71
2022/04/14 12:07:24;;;;;;;8.00;4.40;;;18.50;99.00;;;;;;5037158;28;20083;-72
2022/04/14 12:10:01;;;;;;;8.23;4.05;;;18.40;98.50;;;;;;5082469;28;20101;-72
2022/04/14 12:12:33;;;;;;;8.02;4.15;;;18.30;98.50;;;;;;5040355;28;20049;-72
2022/04/14 12:14:59;;;;;;;9.00;4.60;;;18.20;98.40;;;;;;5045346;28;20048;-72
2022/04/14 12:17:26;;;;;;;9.10;5.47;;;18.20;99.00;;;;;;5069257;28;20041;-72
2022/04/14 12:19:57;;;;;;;14.05;5.13;;;18.20;98.80;;;;;;5039095;28;20045;-72
2022/04/14 12:22:27;;;;;;;10.27;5.63;;;18.10;98.90;;;;;;5055828;28;20044;-71
2022/04/14 12:25:01;;;;;;;11.02;5.90;;;18.00;99.20;;;;;;5045228;28;20443;-72
2022/04/14 12:27:34;;;;;;;10.88;6.10;;;17.90;99.60;;;;;;5047132;28;20550;-72
2022/04/14 12:30:08;;;;;;;12.10;4.75;;;17.80;99.90;;;;;;5064141;28;20429;-71
2022/04/14 12:32:34;;;;;;;11.48;4.90;;;17.70;99.60;;;;;;5045236;28;20166;-71
2022/04/14 12:35:00;;;;;;;8.98;5.07;;;17.50;99.70;;;;;;5062616;28;20040;-72
2022/04/14 12:37:39;;;;;;;12.55;6.72;;;17.40;99.90;;;;;;5062995;28;20607;-71